createdAt,value
2017-02-23T00:00:04.478Z,22.32
2017-02-23T00:00:24.244Z,22.35
2017-02-23T00:00:43.986Z,22.31
2017-02-23T00:01:03.677Z,22.24
2017-02-23T00:01:23.395Z,22.28
2017-02-23T00:01:43.118Z,22.28
2017-02-23T00:02:02.830Z,22.3
2017-02-23T00:02:21.992Z,22.32
2017-02-23T00:02:41.727Z,22.23
2017-02-23T00:03:01.458Z,22.15
2017-02-23T00:03:21.184Z,22.19
2017-02-23T00:03:40.875Z,22.3
2017-02-23T00:04:00.588Z,22.19
2017-02-23T00:04:20.342Z,22.22
2017-02-23T00:04:40.099Z,22.19
2017-02-23T00:04:59.833Z,22.16
2017-02-23T00:05:19.538Z,22.22
2017-02-23T00:05:39.281Z,22.2
2017-02-23T00:05:58.406Z,22.15
2017-02-23T00:06:18.182Z,22.24
2017-02-23T00:06:38.027Z,22.2
2017-02-23T00:06:57.754Z,22.17
2017-02-23T00:07:17.526Z,22.16
2017-02-23T00:07:37.263Z,22.19
2017-02-23T00:07:57.018Z,22.15
2017-02-23T00:08:16.746Z,22.1
2017-02-23T00:08:35.884Z,22.05
2017-02-23T00:08:55.028Z,22.07
2017-02-23T00:09:14.784Z,22.1
2017-02-23T00:09:34.515Z,22.02
2017-02-23T00:09:54.231Z,22.05
2017-02-23T00:10:13.372Z,22.08
2017-02-23T00:10:32.611Z,22.01
2017-02-23T00:10:52.362Z,22.04
2017-02-23T00:11:12.052Z,22.04
2017-02-23T00:11:31.753Z,22.05
2017-02-23T00:11:51.475Z,22.05
2017-02-23T00:12:10.633Z,22.05
2017-02-23T00:12:30.355Z,22.02
2017-02-23T00:12:50.089Z,22.12
2017-02-23T00:13:09.861Z,22.04
2017-02-23T00:13:28.372Z,22.07
2017-02-23T00:13:48.112Z,22.05
2017-02-23T00:14:07.834Z,22.05
2017-02-23T00:14:26.953Z,22.08
2017-02-23T00:14:46.696Z,22.05
2017-02-23T00:15:06.459Z,22.04
2017-02-23T00:15:26.236Z,22.07
2017-02-23T00:15:45.474Z,22.05
2017-02-23T00:16:05.215Z,22.05
2017-02-23T00:16:24.927Z,22.12
2017-02-23T00:16:44.675Z,22.12
2017-02-23T00:17:03.777Z,22.08
2017-02-23T00:17:23.556Z,22.15
2017-02-23T00:17:42.703Z,22.17
2017-02-23T00:18:02.486Z,22.17
2017-02-23T00:18:21.039Z,22.17
2017-02-23T00:18:40.852Z,22.13
2017-02-23T00:19:00.526Z,22.16
2017-02-23T00:19:20.204Z,22.16
2017-02-23T00:19:40.393Z,22.2
2017-02-23T00:20:00.211Z,22.19
2017-02-23T00:20:33.816Z,22.24
2017-02-23T00:20:53.630Z,22.23
2017-02-23T00:21:13.372Z,22.3
2017-02-23T00:21:33.073Z,22.3
2017-02-23T00:21:52.192Z,22.28
2017-02-23T00:22:11.370Z,22.24
2017-02-23T00:22:31.120Z,22.34
2017-02-23T00:22:50.848Z,22.26
2017-02-23T00:23:10.556Z,22.3
2017-02-23T00:23:30.301Z,22.37
2017-02-23T00:23:50.025Z,22.31
2017-02-23T00:24:09.706Z,22.28
2017-02-23T00:24:29.452Z,22.38
2017-02-23T00:24:49.230Z,22.28
2017-02-23T00:25:07.854Z,22.26
2017-02-23T00:25:27.615Z,22.26
2017-02-23T00:25:47.344Z,22.35
2017-02-23T00:26:07.051Z,22.38
2017-02-23T00:26:26.193Z,22.35
2017-02-23T00:26:45.947Z,22.38
2017-02-23T00:27:05.700Z,22.38
2017-02-23T00:27:25.431Z,22.28
2017-02-23T00:27:45.180Z,22.24
2017-02-23T00:28:04.914Z,22.28
2017-02-23T00:28:24.098Z,22.31
2017-02-23T00:28:43.787Z,22.35
2017-02-23T00:29:03.551Z,22.26
2017-02-23T00:29:23.281Z,22.24
2017-02-23T00:29:43.038Z,22.23
2017-02-23T00:30:02.785Z,22.28
2017-02-23T00:30:22.515Z,22.26
2017-02-23T00:30:42.274Z,22.34
2017-02-23T00:31:01.969Z,22.34
2017-02-23T00:31:21.707Z,22.3
2017-02-23T00:31:41.453Z,22.26
2017-02-23T00:32:01.207Z,22.32
2017-02-23T00:32:20.962Z,22.37
2017-02-23T00:32:40.689Z,22.32
2017-02-23T00:33:00.406Z,22.32
2017-02-23T00:33:20.125Z,22.31
2017-02-23T00:33:39.873Z,22.28
2017-02-23T00:33:59.606Z,22.32
2017-02-23T00:34:19.367Z,22.34
2017-02-23T00:34:39.131Z,22.34
2017-02-23T00:34:58.192Z,22.3
2017-02-23T00:35:18.314Z,22.39
2017-02-23T00:35:38.156Z,22.39
2017-02-23T00:35:57.868Z,22.37
2017-02-23T00:36:17.658Z,22.35
2017-02-23T00:36:37.363Z,22.34
2017-02-23T00:36:57.062Z,22.31
2017-02-23T00:37:16.217Z,22.38
2017-02-23T00:37:36.030Z,22.34
2017-02-23T00:37:55.179Z,22.3
2017-02-23T00:38:14.311Z,22.35
2017-02-23T00:38:34.101Z,22.46
2017-02-23T00:38:53.912Z,22.35
2017-02-23T00:39:13.697Z,22.46
2017-02-23T00:39:33.505Z,22.37
2017-02-23T00:39:54.183Z,22.31
2017-02-23T00:40:13.381Z,22.34
2017-02-23T00:40:33.173Z,22.31
2017-02-23T00:40:52.973Z,22.32
2017-02-23T00:41:12.761Z,22.34
2017-02-23T00:41:32.578Z,22.37
2017-02-23T00:41:52.337Z,22.39
2017-02-23T00:42:12.094Z,22.37
2017-02-23T00:42:31.876Z,22.3
2017-02-23T00:42:51.623Z,22.38
2017-02-23T00:43:11.354Z,22.37
2017-02-23T00:43:31.148Z,22.34
2017-02-23T00:43:50.842Z,22.37
2017-02-23T00:44:10.560Z,22.28
2017-02-23T00:44:30.271Z,22.26
2017-02-23T00:44:49.987Z,22.3
2017-02-23T00:45:09.110Z,22.24
2017-02-23T00:45:28.883Z,22.34
2017-02-23T00:45:48.076Z,22.22
2017-02-23T00:46:07.782Z,22.2
2017-02-23T00:46:26.324Z,22.31
2017-02-23T00:46:46.089Z,22.23
2017-02-23T00:47:05.803Z,22.26
2017-02-23T00:47:25.544Z,22.24
2017-02-23T00:47:45.281Z,22.26
2017-02-23T00:48:05.032Z,22.13
2017-02-23T00:48:24.193Z,22.2
2017-02-23T00:48:43.924Z,22.13
2017-02-23T00:49:03.653Z,22.16
2017-02-23T00:49:23.431Z,22.2
2017-02-23T00:49:43.207Z,22.19
2017-02-23T00:50:02.952Z,22.19
2017-02-23T00:50:22.127Z,22.17
2017-02-23T00:50:41.882Z,22.19
2017-02-23T00:51:01.071Z,22.16
2017-02-23T00:51:20.824Z,22.22
2017-02-23T00:51:40.558Z,22.17
2017-02-23T00:52:00.274Z,22.22
2017-02-23T00:52:19.419Z,22.19
2017-02-23T00:52:39.154Z,22.2
2017-02-23T00:52:58.247Z,22.16
2017-02-23T00:53:16.757Z,22.26
2017-02-23T00:53:36.483Z,22.17
2017-02-23T00:53:56.580Z,22.19
2017-02-23T00:54:16.334Z,22.16
2017-02-23T00:54:36.124Z,22.12
2017-02-23T00:54:55.842Z,22.04
2017-02-23T00:55:14.982Z,22.05
2017-02-23T00:55:34.708Z,22.02
2017-02-23T00:55:54.457Z,22
2017-02-23T00:56:14.202Z,22.01
2017-02-23T00:56:33.941Z,21.97
2017-02-23T00:56:53.652Z,21.89
2017-02-23T00:57:13.362Z,21.94
2017-02-23T00:57:33.106Z,22
2017-02-23T00:57:52.310Z,22.05
2017-02-23T00:58:10.889Z,22
2017-02-23T00:58:30.670Z,22
2017-02-23T00:58:50.411Z,22.02
2017-02-23T00:59:10.194Z,22
2017-02-23T00:59:29.935Z,21.97
2017-02-23T00:59:49.660Z,22.01
2017-02-23T01:00:09.582Z,22.02
2017-02-23T01:00:28.839Z,21.92
2017-02-23T01:00:47.977Z,21.89
2017-02-23T01:01:07.681Z,21.98
2017-02-23T01:01:27.410Z,21.92
2017-02-23T01:01:47.159Z,21.91
2017-02-23T01:02:05.673Z,21.95
2017-02-23T01:02:24.820Z,21.79
2017-02-23T01:02:44.605Z,21.84
2017-02-23T01:03:04.392Z,21.89
2017-02-23T01:03:24.114Z,21.78
2017-02-23T01:03:43.857Z,21.79
2017-02-23T01:04:03.563Z,21.84
2017-02-23T01:04:23.276Z,21.79
2017-02-23T01:04:42.989Z,21.75
2017-02-23T01:05:02.722Z,21.79
2017-02-23T01:05:22.466Z,21.79
2017-02-23T01:05:42.324Z,21.75
2017-02-23T01:06:01.472Z,21.91
2017-02-23T01:06:20.595Z,21.85
2017-02-23T01:06:40.337Z,21.92
2017-02-23T01:07:00.070Z,21.92
2017-02-23T01:07:19.817Z,21.91
2017-02-23T01:07:39.629Z,21.89
2017-02-23T01:07:58.804Z,21.98
2017-02-23T01:08:19.025Z,21.95
2017-02-23T01:08:38.724Z,21.92
2017-02-23T01:08:57.855Z,21.92
2017-02-23T01:09:17.614Z,22.04
2017-02-23T01:09:37.349Z,22.04
2017-02-23T01:09:57.044Z,22.07
2017-02-23T01:10:16.207Z,22.07
2017-02-23T01:10:35.940Z,22.04
2017-02-23T01:10:55.701Z,22.05
2017-02-23T01:11:15.425Z,22.1
2017-02-23T01:11:35.175Z,22.04
2017-02-23T01:11:54.858Z,22.04
2017-02-23T01:12:13.970Z,22.05
2017-02-23T01:12:33.705Z,22.05
2017-02-23T01:12:53.414Z,22.08
2017-02-23T01:13:13.167Z,22.07
2017-02-23T01:13:32.293Z,22.04
2017-02-23T01:13:51.998Z,22.05
2017-02-23T01:14:11.141Z,22.15
2017-02-23T01:14:30.881Z,22.05
2017-02-23T01:14:50.580Z,22.02
2017-02-23T01:15:10.356Z,22.1
2017-02-23T01:15:29.596Z,22.16
2017-02-23T01:15:49.319Z,22.12
2017-02-23T01:16:09.089Z,22.16
2017-02-23T01:16:28.785Z,22.15
2017-02-23T01:16:48.732Z,22.15
2017-02-23T01:17:08.464Z,22.16
2017-02-23T01:17:27.588Z,22.19
2017-02-23T01:17:47.333Z,22.16
2017-02-23T01:18:06.509Z,22.17
2017-02-23T01:18:25.679Z,22.19
2017-02-23T01:18:45.409Z,22.15
2017-02-23T01:19:05.167Z,22.17
2017-02-23T01:19:24.328Z,22.15
2017-02-23T01:19:44.073Z,22.15
2017-02-23T01:20:03.152Z,22.13
2017-02-23T01:20:22.300Z,22.13
2017-02-23T01:20:42.022Z,22.16
2017-02-23T01:21:01.798Z,22.15
2017-02-23T01:21:21.516Z,22.13
2017-02-23T01:21:41.251Z,22.13
2017-02-23T01:22:00.999Z,22.16
2017-02-23T01:22:20.738Z,22.07
2017-02-23T01:22:40.421Z,22.13
2017-02-23T01:23:00.126Z,22.04
2017-02-23T01:23:19.839Z,22.12
2017-02-23T01:23:39.600Z,22.07
2017-02-23T01:23:58.760Z,22.17
2017-02-23T01:24:18.486Z,22.13
2017-02-23T01:24:38.240Z,22.15
2017-02-23T01:24:57.989Z,22.16
2017-02-23T01:25:17.912Z,22.13
2017-02-23T01:25:37.734Z,22.13
2017-02-23T01:25:57.483Z,22.17
2017-02-23T01:26:16.007Z,22.16
2017-02-23T01:26:35.735Z,22.12
2017-02-23T01:26:55.468Z,22.07
2017-02-23T01:27:14.557Z,22.07
2017-02-23T01:27:34.245Z,22.07
2017-02-23T01:27:53.991Z,22.02
2017-02-23T01:28:13.746Z,22.04
2017-02-23T01:28:32.870Z,22.12
2017-02-23T01:28:52.573Z,22.07
2017-02-23T01:29:12.286Z,22.07
2017-02-23T01:29:31.424Z,22.07
2017-02-23T01:29:51.161Z,22.05
2017-02-23T01:30:10.897Z,22.05
2017-02-23T01:30:30.097Z,22.07
2017-02-23T01:30:49.814Z,22.16
2017-02-23T01:31:09.551Z,22.08
2017-02-23T01:31:29.304Z,22.05
2017-02-23T01:31:48.439Z,22.12
2017-02-23T01:32:08.144Z,22.07
2017-02-23T01:32:27.862Z,22.05
2017-02-23T01:32:47.632Z,22.02
2017-02-23T01:33:07.360Z,22.05
2017-02-23T01:33:27.111Z,22.04
2017-02-23T01:33:46.836Z,22.07
2017-02-23T01:34:06.542Z,21.98
2017-02-23T01:34:26.302Z,22.04
2017-02-23T01:34:45.991Z,21.98
2017-02-23T01:35:05.375Z,22.02
2017-02-23T01:35:25.110Z,21.98
2017-02-23T01:35:44.853Z,22.04
2017-02-23T01:36:04.618Z,22.07
2017-02-23T01:36:24.361Z,22.04
2017-02-23T01:36:44.145Z,22.04
2017-02-23T01:37:03.846Z,22.05
2017-02-23T01:37:23.580Z,22.07
2017-02-23T01:37:43.374Z,22.05
2017-02-23T01:38:02.502Z,22.05
2017-02-23T01:38:22.256Z,22.05
2017-02-23T01:38:41.958Z,22.05
2017-02-23T01:39:02.270Z,22.1
2017-02-23T01:39:22.038Z,22.05
2017-02-23T01:39:41.789Z,22.01
2017-02-23T01:40:01.474Z,22.07
2017-02-23T01:40:21.161Z,22.05
2017-02-23T01:40:41.008Z,22.04
2017-02-23T01:41:00.695Z,21.98
2017-02-23T01:41:19.873Z,22.01
2017-02-23T01:41:39.591Z,22.08
2017-02-23T01:41:59.317Z,22.04
2017-02-23T01:42:19.114Z,22.01
2017-02-23T01:42:38.820Z,22.05
2017-02-23T01:42:58.532Z,22.01
2017-02-23T01:43:18.276Z,22.02
2017-02-23T01:43:37.988Z,22.08
2017-02-23T01:43:57.734Z,21.98
2017-02-23T01:44:17.405Z,22
2017-02-23T01:44:37.131Z,22.07
2017-02-23T01:44:56.908Z,22.08
2017-02-23T01:45:16.030Z,22.02
2017-02-23T01:45:35.852Z,22.05
2017-02-23T01:45:55.012Z,22.07
2017-02-23T01:46:14.184Z,22
2017-02-23T01:46:33.957Z,22.04
2017-02-23T01:46:53.680Z,22.05
2017-02-23T01:47:13.479Z,22.04
2017-02-23T01:47:32.658Z,22.07
2017-02-23T01:47:52.457Z,22
2017-02-23T01:48:11.584Z,22.07
2017-02-23T01:48:30.712Z,22
2017-02-23T01:48:50.427Z,22.02
2017-02-23T01:49:09.582Z,22.05
2017-02-23T01:49:29.338Z,21.95
2017-02-23T01:49:49.061Z,21.89
2017-02-23T01:50:09.014Z,21.92
2017-02-23T01:50:28.759Z,21.89
2017-02-23T01:50:48.475Z,21.81
2017-02-23T01:51:08.193Z,21.78
2017-02-23T01:51:27.896Z,21.79
2017-02-23T01:51:47.611Z,21.84
2017-02-23T01:52:07.330Z,21.84
2017-02-23T01:52:27.075Z,21.75
2017-02-23T01:52:46.797Z,21.79
2017-02-23T01:53:06.565Z,21.81
2017-02-23T01:53:26.296Z,21.79
2017-02-23T01:53:45.391Z,21.81
2017-02-23T01:54:05.095Z,21.79
2017-02-23T01:54:24.816Z,21.78
2017-02-23T01:54:44.594Z,21.85
2017-02-23T01:55:04.400Z,21.75
2017-02-23T01:55:23.565Z,21.79
2017-02-23T01:55:43.291Z,21.81
2017-02-23T01:56:02.444Z,21.78
2017-02-23T01:56:22.411Z,21.84
2017-02-23T01:56:42.120Z,21.91
2017-02-23T01:57:01.887Z,21.78
2017-02-23T01:57:21.688Z,21.81
2017-02-23T01:57:41.394Z,21.76
2017-02-23T01:58:01.145Z,21.79
2017-02-23T01:58:20.884Z,21.94
2017-02-23T01:58:40.633Z,21.85
2017-02-23T01:59:00.369Z,21.84
2017-02-23T01:59:19.540Z,21.76
2017-02-23T01:59:39.265Z,21.85
2017-02-23T01:59:59.000Z,21.95
2017-02-23T02:00:18.133Z,21.85
2017-02-23T02:00:37.868Z,21.97
2017-02-23T02:00:57.589Z,21.95
2017-02-23T02:01:17.321Z,22
2017-02-23T02:01:36.996Z,21.92
2017-02-23T02:01:56.140Z,21.94
2017-02-23T02:02:15.846Z,21.91
2017-02-23T02:02:34.977Z,21.92
2017-02-23T02:02:54.707Z,21.95
2017-02-23T02:03:14.408Z,21.91
2017-02-23T02:03:34.163Z,21.92
2017-02-23T02:03:53.894Z,21.95
2017-02-23T02:04:13.652Z,21.97
2017-02-23T02:04:32.799Z,21.91
2017-02-23T02:04:52.542Z,21.91
2017-02-23T02:05:12.318Z,22
2017-02-23T02:05:31.560Z,21.94
2017-02-23T02:05:51.291Z,21.94
2017-02-23T02:06:10.511Z,21.94
2017-02-23T02:06:30.471Z,21.86
2017-02-23T02:06:50.257Z,21.86
2017-02-23T02:07:08.787Z,21.85
2017-02-23T02:07:28.514Z,21.91
2017-02-23T02:07:47.635Z,21.89
2017-02-23T02:08:07.405Z,21.84
2017-02-23T02:08:27.128Z,21.91
2017-02-23T02:08:46.873Z,21.91
2017-02-23T02:09:06.601Z,21.84
2017-02-23T02:09:25.715Z,21.84
2017-02-23T02:09:44.865Z,21.82
2017-02-23T02:10:04.610Z,21.85
2017-02-23T02:10:23.710Z,21.84
2017-02-23T02:10:43.480Z,21.84
2017-02-23T02:11:03.204Z,21.86
2017-02-23T02:11:22.975Z,21.85
2017-02-23T02:11:42.723Z,21.89
2017-02-23T02:12:02.452Z,21.86
2017-02-23T02:12:22.207Z,21.85
2017-02-23T02:12:41.951Z,21.78
2017-02-23T02:13:01.064Z,21.84
2017-02-23T02:13:20.231Z,21.82
2017-02-23T02:13:39.961Z,21.78
2017-02-23T02:13:59.082Z,21.75
2017-02-23T02:14:17.615Z,21.76
2017-02-23T02:14:37.365Z,21.79
2017-02-23T02:14:57.117Z,21.89
2017-02-23T02:15:15.682Z,21.91
2017-02-23T02:15:35.423Z,21.91
2017-02-23T02:15:55.152Z,21.81
2017-02-23T02:16:14.891Z,21.86
2017-02-23T02:16:34.627Z,21.86
2017-02-23T02:16:54.421Z,21.89
2017-02-23T02:17:14.133Z,21.91
2017-02-23T02:17:33.328Z,21.86
2017-02-23T02:17:53.013Z,21.86
2017-02-23T02:18:12.774Z,21.86
2017-02-23T02:18:31.901Z,21.81
2017-02-23T02:18:51.647Z,21.86
2017-02-23T02:19:11.448Z,21.81
2017-02-23T02:19:31.172Z,21.86
2017-02-23T02:19:50.929Z,21.82
2017-02-23T02:20:10.674Z,21.89
2017-02-23T02:20:30.369Z,21.89
2017-02-23T02:20:50.108Z,21.95
2017-02-23T02:21:09.827Z,21.89
2017-02-23T02:21:29.499Z,21.98
2017-02-23T02:21:49.295Z,21.97
2017-02-23T02:22:09.047Z,21.85
2017-02-23T02:22:28.793Z,21.94
2017-02-23T02:22:48.505Z,21.92
2017-02-23T02:23:08.249Z,21.95
2017-02-23T02:23:27.958Z,21.92
2017-02-23T02:23:47.686Z,21.82
2017-02-23T02:24:07.426Z,21.91
2017-02-23T02:24:27.173Z,21.86
2017-02-23T02:24:46.938Z,21.94
2017-02-23T02:25:06.661Z,21.89
2017-02-23T02:25:26.427Z,21.85
2017-02-23T02:25:45.556Z,21.98
2017-02-23T02:26:05.313Z,21.97
2017-02-23T02:26:25.011Z,21.94
2017-02-23T02:26:44.725Z,21.97
2017-02-23T02:27:04.465Z,22
2017-02-23T02:27:23.579Z,21.91
2017-02-23T02:27:43.372Z,21.84
2017-02-23T02:28:03.088Z,21.92
2017-02-23T02:28:22.882Z,21.85
2017-02-23T02:28:42.621Z,21.92
2017-02-23T02:29:02.351Z,22.01
2017-02-23T02:29:22.059Z,21.95
2017-02-23T02:29:41.782Z,22.02
2017-02-23T02:30:01.498Z,21.94
2017-02-23T02:30:21.263Z,21.97
2017-02-23T02:30:41.019Z,21.95
2017-02-23T02:31:00.774Z,21.91
2017-02-23T02:31:20.481Z,21.94
2017-02-23T02:31:40.323Z,21.94
2017-02-23T02:32:13.350Z,21.86
2017-02-23T02:32:33.115Z,21.94
2017-02-23T02:32:52.283Z,21.92
2017-02-23T02:33:11.401Z,21.95
2017-02-23T02:33:31.087Z,22
2017-02-23T02:33:50.835Z,21.94
2017-02-23T02:34:09.951Z,21.98
2017-02-23T02:34:29.089Z,21.97
2017-02-23T02:34:48.901Z,21.86
2017-02-23T02:35:08.609Z,21.78
2017-02-23T02:35:28.437Z,21.79
2017-02-23T02:35:48.183Z,21.79
2017-02-23T02:36:07.896Z,21.89
2017-02-23T02:36:27.623Z,21.89
2017-02-23T02:36:47.347Z,21.85
2017-02-23T02:37:06.478Z,21.86
2017-02-23T02:37:26.206Z,21.91
2017-02-23T02:37:45.422Z,21.82
2017-02-23T02:38:05.091Z,21.85
2017-02-23T02:38:24.233Z,21.79
2017-02-23T02:38:43.952Z,21.91
2017-02-23T02:39:03.090Z,21.85
2017-02-23T02:39:22.822Z,21.91
2017-02-23T02:39:42.698Z,21.89
2017-02-23T02:40:02.646Z,21.98
2017-02-23T02:40:21.850Z,21.91
2017-02-23T02:40:42.512Z,21.81
2017-02-23T02:41:02.247Z,21.84
2017-02-23T02:41:21.991Z,21.85
2017-02-23T02:41:41.750Z,21.82
2017-02-23T02:42:01.478Z,21.76
2017-02-23T02:42:21.239Z,21.85
2017-02-23T02:42:40.976Z,21.84
2017-02-23T02:43:00.686Z,21.81
2017-02-23T02:43:20.413Z,21.82
2017-02-23T02:43:40.171Z,21.79
2017-02-23T02:44:00.121Z,21.81
2017-02-23T02:44:18.694Z,21.75
2017-02-23T02:44:38.411Z,21.76
2017-02-23T02:44:58.172Z,21.78
2017-02-23T02:45:17.908Z,21.86
2017-02-23T02:45:37.639Z,21.86
2017-02-23T02:45:57.370Z,21.75
2017-02-23T02:46:17.095Z,21.76
2017-02-23T02:46:36.833Z,21.78
2017-02-23T02:46:55.951Z,21.76
2017-02-23T02:47:15.682Z,21.89
2017-02-23T02:47:35.420Z,21.82
2017-02-23T02:47:55.134Z,21.81
2017-02-23T02:48:14.877Z,21.82
2017-02-23T02:48:33.967Z,21.85
2017-02-23T02:48:53.673Z,21.85
2017-02-23T02:49:13.421Z,21.86
2017-02-23T02:49:32.567Z,21.79
2017-02-23T02:49:52.317Z,21.82
2017-02-23T02:50:11.998Z,21.78
2017-02-23T02:50:30.538Z,21.74
2017-02-23T02:50:50.288Z,21.86
2017-02-23T02:51:10.169Z,21.79
2017-02-23T02:51:29.883Z,21.76
2017-02-23T02:51:49.655Z,21.79
2017-02-23T02:52:08.777Z,21.78
2017-02-23T02:52:28.530Z,21.75
2017-02-23T02:52:48.282Z,21.78
2017-02-23T02:53:08.010Z,21.69
2017-02-23T02:53:27.762Z,21.76
2017-02-23T02:53:47.497Z,21.74
2017-02-23T02:54:07.205Z,21.79
2017-02-23T02:54:26.949Z,21.81
2017-02-23T02:54:46.654Z,21.79
2017-02-23T02:55:06.357Z,21.79
2017-02-23T02:55:26.065Z,21.79
2017-02-23T02:55:45.807Z,21.72
2017-02-23T02:56:04.909Z,21.74
2017-02-23T02:56:24.641Z,21.79
2017-02-23T02:56:44.434Z,21.76
2017-02-23T02:57:04.152Z,21.82
2017-02-23T02:57:23.870Z,21.76
2017-02-23T02:57:43.604Z,21.78
2017-02-23T02:58:03.346Z,21.75
2017-02-23T02:58:22.490Z,21.82
2017-02-23T02:58:42.228Z,21.75
2017-02-23T02:59:01.386Z,21.75
2017-02-23T02:59:20.533Z,21.76
2017-02-23T02:59:40.281Z,21.79
2017-02-23T03:00:00.010Z,21.79
2017-02-23T03:00:18.623Z,21.78
2017-02-23T03:00:37.756Z,21.74
2017-02-23T03:00:57.517Z,21.84
2017-02-23T03:01:16.652Z,21.78
2017-02-23T03:01:36.325Z,21.82
2017-02-23T03:01:56.063Z,21.78
2017-02-23T03:02:15.202Z,21.78
2017-02-23T03:02:34.953Z,21.75
2017-02-23T03:02:54.637Z,21.78
2017-02-23T03:03:14.377Z,21.79
2017-02-23T03:03:32.893Z,21.76
2017-02-23T03:03:52.055Z,21.78
2017-02-23T03:04:11.809Z,21.82
2017-02-23T03:04:31.587Z,21.85
2017-02-23T03:04:51.356Z,21.76
2017-02-23T03:05:10.510Z,21.72
2017-02-23T03:05:29.639Z,21.75
2017-02-23T03:05:49.385Z,21.72
2017-02-23T03:06:08.537Z,21.78
2017-02-23T03:06:27.729Z,21.76
2017-02-23T03:06:47.447Z,21.74
2017-02-23T03:07:07.214Z,21.76
2017-02-23T03:07:26.378Z,21.81
2017-02-23T03:07:45.519Z,21.72
2017-02-23T03:08:05.284Z,21.63
2017-02-23T03:08:24.409Z,21.78
2017-02-23T03:08:44.142Z,21.69
2017-02-23T03:09:03.279Z,21.75
2017-02-23T03:09:23.011Z,21.79
2017-02-23T03:09:42.754Z,21.7
2017-02-23T03:10:02.464Z,21.81
2017-02-23T03:10:21.595Z,21.76
2017-02-23T03:10:41.306Z,21.84
2017-02-23T03:11:01.032Z,21.78
2017-02-23T03:11:20.753Z,21.78
2017-02-23T03:12:13.516Z,21.79
2017-02-23T03:12:33.245Z,21.81
2017-02-23T03:12:52.971Z,21.82
2017-02-23T03:13:12.723Z,21.78
2017-02-23T03:13:31.861Z,21.81
2017-02-23T03:13:50.983Z,21.78
2017-02-23T03:14:10.164Z,21.76
2017-02-23T03:14:29.314Z,21.78
2017-02-23T03:15:22.445Z,21.75
2017-02-23T03:15:42.188Z,21.74
2017-02-23T03:16:01.317Z,21.78
2017-02-23T03:16:20.443Z,21.74
2017-02-23T03:16:40.216Z,21.69
2017-02-23T03:16:59.335Z,21.72
2017-02-23T03:17:19.070Z,21.82
2017-02-23T03:17:38.802Z,21.81
2017-02-23T03:17:57.971Z,21.82
2017-02-23T03:18:17.725Z,21.78
2017-02-23T03:18:37.476Z,21.79
2017-02-23T03:18:57.193Z,21.67
2017-02-23T03:19:16.898Z,21.7
2017-02-23T03:19:36.626Z,21.7
2017-02-23T03:19:56.362Z,21.82
2017-02-23T03:20:15.501Z,21.72
2017-02-23T03:20:35.264Z,21.75
2017-02-23T03:20:54.992Z,21.78
2017-02-23T03:21:14.124Z,21.75
2017-02-23T03:21:33.849Z,21.78
2017-02-23T03:21:53.595Z,21.67
2017-02-23T03:22:13.291Z,21.75
2017-02-23T03:22:32.440Z,21.72
2017-02-23T03:22:52.200Z,21.66
2017-02-23T03:23:11.898Z,21.66
2017-02-23T03:23:31.642Z,21.7
2017-02-23T03:23:50.822Z,21.78
2017-02-23T03:24:10.533Z,21.69
2017-02-23T03:24:29.696Z,21.74
2017-02-23T03:24:49.441Z,21.75
2017-02-23T03:25:08.579Z,21.74
2017-02-23T03:25:28.326Z,21.64
2017-02-23T03:25:47.453Z,21.66
2017-02-23T03:26:07.226Z,21.7
2017-02-23T03:26:26.571Z,21.69
2017-02-23T03:26:46.313Z,21.57
2017-02-23T03:27:05.467Z,21.63
2017-02-23T03:27:25.238Z,21.54
2017-02-23T03:27:45.019Z,21.6
2017-02-23T03:28:04.765Z,21.54
2017-02-23T03:28:24.458Z,21.45
2017-02-23T03:28:44.188Z,21.48
2017-02-23T03:29:03.927Z,21.56
2017-02-23T03:29:23.645Z,21.56
2017-02-23T03:29:43.387Z,21.51
2017-02-23T03:30:03.095Z,21.48
2017-02-23T03:30:22.813Z,21.53
2017-02-23T03:30:42.556Z,21.53
2017-02-23T03:31:02.235Z,21.51
2017-02-23T03:31:20.764Z,21.59
2017-02-23T03:31:40.535Z,21.53
2017-02-23T03:32:00.284Z,21.53
2017-02-23T03:32:19.434Z,21.54
2017-02-23T03:32:39.181Z,21.54
2017-02-23T03:32:58.945Z,21.53
2017-02-23T03:33:18.707Z,21.45
2017-02-23T03:33:38.448Z,21.42
2017-02-23T03:33:58.164Z,21.46
2017-02-23T03:34:17.915Z,21.46
2017-02-23T03:34:37.651Z,21.46
2017-02-23T03:34:57.414Z,21.46
2017-02-23T03:35:17.178Z,21.51
2017-02-23T03:35:36.513Z,21.54
2017-02-23T03:35:56.223Z,21.6
2017-02-23T03:36:15.351Z,21.63
2017-02-23T03:36:34.470Z,21.63
2017-02-23T03:36:54.168Z,21.57
2017-02-23T03:37:13.894Z,21.54
2017-02-23T03:37:33.626Z,21.66
2017-02-23T03:37:52.823Z,21.69
2017-02-23T03:38:12.567Z,21.69
2017-02-23T03:38:31.700Z,21.74
2017-02-23T03:38:51.435Z,21.74
2017-02-23T03:39:10.594Z,21.66
2017-02-23T03:39:30.346Z,21.64
2017-02-23T03:39:50.093Z,21.63
2017-02-23T03:40:09.845Z,21.63
2017-02-23T03:40:29.560Z,21.72
2017-02-23T03:40:49.345Z,21.69
2017-02-23T03:41:09.109Z,21.69
2017-02-23T03:41:28.844Z,21.67
2017-02-23T03:41:47.960Z,21.64
2017-02-23T03:42:07.699Z,21.63
2017-02-23T03:42:27.471Z,21.69
2017-02-23T03:42:46.605Z,21.75
2017-02-23T03:43:06.377Z,21.78
2017-02-23T03:43:26.130Z,21.78
2017-02-23T03:43:45.863Z,21.74
2017-02-23T03:44:05.594Z,21.75
2017-02-23T03:44:25.329Z,21.76
2017-02-23T03:44:45.072Z,21.72
2017-02-23T03:45:04.986Z,21.69
2017-02-23T03:45:24.674Z,21.69
2017-02-23T03:45:44.410Z,21.76
2017-02-23T03:46:04.111Z,21.75
2017-02-23T03:46:23.816Z,21.76
2017-02-23T03:46:43.532Z,21.75
2017-02-23T03:47:03.283Z,21.7
2017-02-23T03:47:23.034Z,21.67
2017-02-23T03:47:42.755Z,21.75
2017-02-23T03:48:02.500Z,21.7
2017-02-23T03:48:22.254Z,21.64
2017-02-23T03:48:41.995Z,21.61
2017-02-23T03:49:01.124Z,21.67
2017-02-23T03:49:20.871Z,21.67
2017-02-23T03:49:40.624Z,21.66
2017-02-23T03:50:00.320Z,21.59
2017-02-23T03:50:19.660Z,21.67
2017-02-23T03:50:39.387Z,21.76
2017-02-23T03:50:59.136Z,21.7
2017-02-23T03:51:18.220Z,21.67
2017-02-23T03:51:37.933Z,21.72
2017-02-23T03:51:57.644Z,21.7
2017-02-23T03:52:17.356Z,21.75
2017-02-23T03:52:36.499Z,21.69
2017-02-23T03:52:56.233Z,21.75
2017-02-23T03:53:16.023Z,21.76
2017-02-23T03:53:35.163Z,21.75
2017-02-23T03:53:54.939Z,21.69
2017-02-23T03:54:14.077Z,21.81
2017-02-23T03:54:33.197Z,21.72
2017-02-23T03:54:52.961Z,21.76
2017-02-23T03:55:12.736Z,21.82
2017-02-23T03:55:32.479Z,21.72
2017-02-23T03:55:52.179Z,21.78
2017-02-23T03:56:11.909Z,21.66
2017-02-23T03:56:31.097Z,21.76
2017-02-23T03:56:50.781Z,21.75
2017-02-23T03:57:10.524Z,21.75
2017-02-23T03:57:30.279Z,21.74
2017-02-23T03:57:49.969Z,21.76
2017-02-23T03:58:09.685Z,21.79
2017-02-23T03:58:29.360Z,21.72
2017-02-23T03:58:49.109Z,21.81
2017-02-23T03:59:08.823Z,21.78
2017-02-23T03:59:28.587Z,21.75
2017-02-23T03:59:48.288Z,21.75
2017-02-23T04:00:08.241Z,21.72
2017-02-23T04:00:26.842Z,21.72
2017-02-23T04:00:46.552Z,21.75
2017-02-23T04:01:06.276Z,21.74
2017-02-23T04:01:26.022Z,21.75
2017-02-23T04:01:45.785Z,21.75
2017-02-23T04:02:05.481Z,21.82
2017-02-23T04:02:24.622Z,21.78
2017-02-23T04:02:44.355Z,21.74
2017-02-23T04:03:04.054Z,21.81
2017-02-23T04:03:23.187Z,21.78
2017-02-23T04:03:42.911Z,21.79
2017-02-23T04:04:02.627Z,21.79
2017-02-23T04:04:21.752Z,21.84
2017-02-23T04:04:41.512Z,21.76
2017-02-23T04:05:01.248Z,21.79
2017-02-23T04:05:21.198Z,21.79
2017-02-23T04:05:40.921Z,21.82
2017-02-23T04:06:00.655Z,21.76
2017-02-23T04:06:20.410Z,21.82
2017-02-23T04:06:40.167Z,21.82
2017-02-23T04:06:59.342Z,21.79
2017-02-23T04:07:18.490Z,21.82
2017-02-23T04:07:38.242Z,21.79
2017-02-23T04:07:57.996Z,21.79
2017-02-23T04:08:17.142Z,21.79
2017-02-23T04:08:36.924Z,21.78
2017-02-23T04:08:56.069Z,21.7
2017-02-23T04:09:15.316Z,21.78
2017-02-23T04:09:34.465Z,21.66
2017-02-23T04:09:54.226Z,21.74
2017-02-23T04:10:13.385Z,21.82
2017-02-23T04:10:33.154Z,21.69
2017-02-23T04:10:52.300Z,21.78
2017-02-23T04:11:11.996Z,21.76
2017-02-23T04:11:31.126Z,21.74
2017-02-23T04:11:50.851Z,21.7
2017-02-23T04:12:09.986Z,21.76
2017-02-23T04:12:29.734Z,21.75
2017-02-23T04:12:48.903Z,21.64
2017-02-23T04:13:08.600Z,21.76
2017-02-23T04:13:27.737Z,21.66
2017-02-23T04:13:46.885Z,21.81
2017-02-23T04:14:06.661Z,21.72
2017-02-23T04:14:25.777Z,21.75
2017-02-23T04:14:44.866Z,21.78